sensor_id;sensor_type;location;lat;lon;timestamp;pressure;altitude;pressure_sealevel;temperature;humidity
70544;BME280;58097;48.364;-1.224;2023-01-31T00:00:51;101104.22;;;6.18;87.35
70544;BME280;58097;48.364;-1.224;2023-01-31T00:03:16;101106.97;;;6.18;87.21
70544;BME280;58097;48.364;-1.224;2023-01-31T00:05:42;101115.50;;;6.13;87.56
70544;BME280;58097;48.364;-1.224;2023-01-31T00:08:07;101109.34;;;6.10;87.46
70544;BME280;58097;48.364;-1.224;2023-01-31T00:10:33;101111.31;;;6.08;87.48
70544;BME280;58097;48.364;-1.224;2023-01-31T00:12:58;101121.41;;;6.07;87.41
70544;BME280;58097;48.364;-1.224;2023-01-31T00:15:23;101121.31;;;6.09;87.37
70544;BME280;58097;48.364;-1.224;2023-01-31T00:17:49;101106.72;;;6.08;87.44
70544;BME280;58097;48.364;-1.224;2023-01-31T00:20:14;101102.09;;;6.09;87.29
70544;BME280;58097;48.364;-1.224;2023-01-31T00:22:40;101102.00;;;6.10;87.23
70544;BME280;58097;48.364;-1.224;2023-01-31T00:25:05;101099.03;;;6.13;87.03
70544;BME280;58097;48.364;-1.224;2023-01-31T00:27:31;101088.06;;;6.13;87.05
70544;BME280;58097;48.364;-1.224;2023-01-31T00:29:57;101088.94;;;6.14;86.75
70544;BME280;58097;48.364;-1.224;2023-01-31T00:32:22;101084.44;;;6.13;86.72
70544;BME280;58097;48.364;-1.224;2023-01-31T00:34:49;101084.44;;;6.13;86.81
70544;BME280;58097;48.364;-1.224;2023-01-31T00:37:15;101091.69;;;6.14;86.71
70544;BME280;58097;48.364;-1.224;2023-01-31T00:39:40;101090.03;;;6.11;86.59
70544;BME280;58097;48.364;-1.224;2023-01-31T00:42:05;101089.16;;;6.11;86.63
70544;BME280;58097;48.364;-1.224;2023-01-31T00:44:31;101082.78;;;6.10;86.54
70544;BME280;58097;48.364;-1.224;2023-01-31T00:46:56;101081.03;;;6.09;86.59
70544;BME280;58097;48.364;-1.224;2023-01-31T00:49:21;101086.63;;;6.08;86.43
70544;BME280;58097;48.364;-1.224;2023-01-31T00:51:47;101081.19;;;6.06;86.33
70544;BME280;58097;48.364;-1.224;2023-01-31T00:54:12;101079.44;;;6.05;86.15
70544;BME280;58097;48.364;-1.224;2023-01-31T00:56:37;101071.31;;;6.04;86.22
70544;BME280;58097;48.364;-1.224;2023-01-31T00:59:03;101068.69;;;6.02;86.10
70544;BME280;58097;48.364;-1.224;2023-01-31T01:01:33;101064.19;;;6.01;86.09
70544;BME280;58097;48.364;-1.224;2023-01-31T01:03:59;101071.53;;;6.01;86.00
70544;BME280;58097;48.364;-1.224;2023-01-31T01:06:26;101061.44;;;6.01;85.88
70544;BME280;58097;48.364;-1.224;2023-01-31T01:08:52;101058.03;;;5.98;86.11
70544;BME280;58097;48.364;-1.224;2023-01-31T01:11:21;101065.59;;;5.94;86.23
70544;BME280;58097;48.364;-1.224;2023-01-31T01:13:48;101054.91;;;5.89;86.36
70544;BME280;58097;48.364;-1.224;2023-01-31T01:16:21;101056.84;;;5.87;86.16
70544;BME280;58097;48.364;-1.224;2023-01-31T01:18:47;101053.44;;;5.84;86.16
70544;BME280;58097;48.364;-1.224;2023-01-31T01:21:21;101040.72;;;5.83;86.04
70544;BME280;58097;48.364;-1.224;2023-01-31T01:23:47;101040.72;;;5.83;85.93
70544;BME280;58097;48.364;-1.224;2023-01-31T01:26:19;101039.84;;;5.82;85.66
70544;BME280;58097;48.364;-1.224;2023-01-31T01:28:46;101049.94;;;5.82;85.61
70544;BME280;58097;48.364;-1.224;2023-01-31T01:31:13;101043.66;;;5.80;85.60
70544;BME280;58097;48.364;-1.224;2023-01-31T01:33:40;101045.59;;;5.78;85.54
70544;BME280;58097;48.364;-1.224;2023-01-31T01:36:08;101049.44;;;5.75;85.80
70544;BME280;58097;48.364;-1.224;2023-01-31T01:38:36;101053.16;;;5.74;85.64
70544;BME280;58097;48.364;-1.224;2023-01-31T01:41:03;101053.38;;;5.71;85.69
70544;BME280;58097;48.364;-1.224;2023-01-31T01:46:08;101052.38;;;5.72;85.71
70544;BME280;58097;48.364;-1.224;2023-01-31T01:48:35;101046.34;;;5.67;85.89
70544;BME280;58097;48.364;-1.224;2023-01-31T01:51:03;101053.78;;;5.65;86.06
70544;BME280;58097;48.364;-1.224;2023-01-31T01:53:30;101046.75;;;5.61;86.19
70544;BME280;58097;48.364;-1.224;2023-01-31T01:56:08;101044.88;;;5.62;86.13
70544;BME280;58097;48.364;-1.224;2023-01-31T01:58:45;101039.28;;;5.63;85.87
70544;BME280;58097;48.364;-1.224;2023-01-31T02:01:12;101036.56;;;5.63;86.03
70544;BME280;58097;48.364;-1.224;2023-01-31T02:03:41;101032.06;;;5.62;86.00
70544;BME280;58097;48.364;-1.224;2023-01-31T02:06:07;101046.44;;;5.66;85.97
70544;BME280;58097;48.364;-1.224;2023-01-31T02:08:35;101043.81;;;5.64;85.91
70544;BME280;58097;48.364;-1.224;2023-01-31T02:11:07;101036.66;;;5.62;86.00
70544;BME280;58097;48.364;-1.224;2023-01-31T02:13:34;101034.69;;;5.64;85.82
70544;BME280;58097;48.364;-1.224;2023-01-31T02:16:00;101033.25;;;5.58;86.09
70544;BME280;58097;48.364;-1.224;2023-01-31T02:18:26;101034.44;;;5.54;86.06
70544;BME280;58097;48.364;-1.224;2023-01-31T02:32:27;101029.28;;;5.35;85.53
70544;BME280;58097;48.364;-1.224;2023-01-31T02:35:21;101047.69;;;5.33;85.47
70544;BME280;58097;48.364;-1.224;2023-01-31T02:38:16;101046.81;;;5.33;85.70
70544;BME280;58097;48.364;-1.224;2023-01-31T02:43:45;101049.84;;;5.28;85.73
70544;BME280;58097;48.364;-1.224;2023-01-31T02:46:41;101057.09;;;5.29;85.72
70544;BME280;58097;48.364;-1.224;2023-01-31T02:49:33;101063.47;;;5.29;85.76
70544;BME280;58097;48.364;-1.224;2023-01-31T02:52:27;101069.13;;;5.26;85.92
70544;BME280;58097;48.364;-1.224;2023-01-31T02:55:16;101076.19;;;5.31;85.84
70544;BME280;58097;48.364;-1.224;2023-01-31T02:58:03;101071.59;;;5.31;85.71
70544;BME280;58097;48.364;-1.224;2023-01-31T03:00:33;101068.53;;;5.36;85.54
70544;BME280;58097;48.364;-1.224;2023-01-31T03:02:58;101076.75;;;5.36;85.77
70544;BME280;58097;48.364;-1.224;2023-01-31T03:05:24;101082.03;;;5.39;85.72
70544;BME280;58097;48.364;-1.224;2023-01-31T03:07:53;101075.38;;;5.43;85.80
70544;BME280;58097;48.364;-1.224;2023-01-31T03:12:57;101067.72;;;5.48;86.07
70544;BME280;58097;48.364;-1.224;2023-01-31T03:18:41;101049.91;;;5.55;85.89
70544;BME280;58097;48.364;-1.224;2023-01-31T03:21:15;101058.81;;;5.58;85.93
70544;BME280;58097;48.364;-1.224;2023-01-31T03:23:44;101059.69;;;5.59;86.01
70544;BME280;58097;48.364;-1.224;2023-01-31T03:26:13;101051.16;;;5.64;85.70
70544;BME280;58097;48.364;-1.224;2023-01-31T03:28:40;101054.78;;;5.64;85.78
70544;BME280;58097;48.364;-1.224;2023-01-31T03:31:12;101049.28;;;5.64;85.83
70544;BME280;58097;48.364;-1.224;2023-01-31T03:33:44;101042.81;;;5.65;85.54
70544;BME280;58097;48.364;-1.224;2023-01-31T03:41:57;101039.28;;;5.63;85.46
70544;BME280;58097;48.364;-1.224;2023-01-31T03:46:59;101037.75;;;5.59;85.55
70544;BME280;58097;48.364;-1.224;2023-01-31T03:49:28;101038.63;;;5.59;85.66
70544;BME280;58097;48.364;-1.224;2023-01-31T03:52:00;101030.28;;;5.61;85.59
70544;BME280;58097;48.364;-1.224;2023-01-31T03:54:31;101032.16;;;5.60;85.01
70544;BME280;58097;48.364;-1.224;2023-01-31T03:57:04;101036.66;;;5.62;85.43
70544;BME280;58097;48.364;-1.224;2023-01-31T03:59:35;101027.44;;;5.63;85.52
70544;BME280;58097;48.364;-1.224;2023-01-31T04:02:04;101017.47;;;5.62;85.53
70544;BME280;58097;48.364;-1.224;2023-01-31T04:04:35;101022.84;;;5.63;85.65
70544;BME280;58097;48.364;-1.224;2023-01-31T04:07:03;101031.94;;;5.64;85.54
70544;BME280;58097;48.364;-1.224;2023-01-31T04:09:30;101034.59;;;5.65;85.54
70544;BME280;58097;48.364;-1.224;2023-01-31T04:11:58;101039.09;;;5.66;85.20
70544;BME280;58097;48.364;-1.224;2023-01-31T04:14:25;101039.66;;;5.71;85.13
70544;BME280;58097;48.364;-1.224;2023-01-31T04:16:50;101033.19;;;5.72;84.84
70544;BME280;58097;48.364;-1.224;2023-01-31T04:19:15;101034.94;;;5.73;85.30
70544;BME280;58097;48.364;-1.224;2023-01-31T04:21:41;101034.84;;;5.75;85.40
70544;BME280;58097;48.364;-1.224;2023-01-31T04:24:06;101041.09;;;5.77;85.27
70544;BME280;58097;48.364;-1.224;2023-01-31T04:26:34;101048.34;;;5.78;85.52
70544;BME280;58097;48.364;-1.224;2023-01-31T04:28:59;101043.66;;;5.80;85.23
70544;BME280;58097;48.364;-1.224;2023-01-31T04:31:25;101046.41;;;5.80;85.26
70544;BME280;58097;48.364;-1.224;2023-01-31T04:33:50;101041.81;;;5.80;85.37
70544;BME280;58097;48.364;-1.224;2023-01-31T04:36:16;101038.06;;;5.81;85.18
70544;BME280;58097;48.364;-1.224;2023-01-31T04:38:41;101036.50;;;5.77;84.71
70544;BME280;58097;48.364;-1.224;2023-01-31T04:41:06;101031.81;;;5.79;84.98
70544;BME280;58097;48.364;-1.224;2023-01-31T04:43:32;101033.56;;;5.80;85.17
70544;BME280;58097;48.364;-1.224;2023-01-31T04:45:57;101035.34;;;5.81;84.90
70544;BME280;58097;48.364;-1.224;2023-01-31T04:48:22;101034.34;;;5.82;84.99
70544;BME280;58097;48.364;-1.224;2023-01-31T04:50:48;101028.84;;;5.82;85.63
70544;BME280;58097;48.364;-1.224;2023-01-31T04:53:13;101027.88;;;5.83;85.36
70544;BME280;58097;48.364;-1.224;2023-01-31T04:55:39;101028.66;;;5.85;85.40
70544;BME280;58097;48.364;-1.224;2023-01-31T04:58:04;101029.44;;;5.87;85.35
70544;BME280;58097;48.364;-1.224;2023-01-31T05:00:30;101036.66;;;5.88;84.90
70544;BME280;58097;48.364;-1.224;2023-01-31T05:02:55;101032.38;;;5.84;84.28
70544;BME280;58097;48.364;-1.224;2023-01-31T05:05:20;101034.34;;;5.82;84.18
70544;BME280;58097;48.364;-1.224;2023-01-31T05:07:46;101028.75;;;5.84;84.93
70544;BME280;58097;48.364;-1.224;2023-01-31T05:10:12;101039.53;;;5.87;84.79
70544;BME280;58097;48.364;-1.224;2023-01-31T05:12:38;101034.03;;;5.87;85.02
70544;BME280;58097;48.364;-1.224;2023-01-31T05:15:04;101036.59;;;5.90;84.98
70544;BME280;58097;48.364;-1.224;2023-01-31T05:17:32;101040.22;;;5.90;84.76
70544;BME280;58097;48.364;-1.224;2023-01-31T05:19:58;101039.41;;;5.88;84.72
70544;BME280;58097;48.364;-1.224;2023-01-31T05:22:24;101036.78;;;5.87;85.09
70544;BME280;58097;48.364;-1.224;2023-01-31T05:24:50;101038.63;;;5.86;85.04
70544;BME280;58097;48.364;-1.224;2023-01-31T05:27:17;101033.25;;;5.85;84.67
70544;BME280;58097;48.364;-1.224;2023-01-31T05:29:44;101035.00;;;5.86;84.68
70544;BME280;58097;48.364;-1.224;2023-01-31T05:32:10;101032.38;;;5.84;85.04
70544;BME280;58097;48.364;-1.224;2023-01-31T05:34:36;101036.78;;;5.87;84.96
70544;BME280;58097;48.364;-1.224;2023-01-31T05:37:02;101026.69;;;5.87;85.22
70544;BME280;58097;48.364;-1.224;2023-01-31T05:39:28;101020.31;;;5.87;84.81
70544;BME280;58097;48.364;-1.224;2023-01-31T05:41:53;101018.44;;;5.87;84.75
70544;BME280;58097;48.364;-1.224;2023-01-31T05:44:20;101024.81;;;5.88;84.72
70544;BME280;58097;48.364;-1.224;2023-01-31T05:46:45;101029.31;;;5.89;84.80
70544;BME280;58097;48.364;-1.224;2023-01-31T05:49:11;101035.72;;;5.89;85.11
70544;BME280;58097;48.364;-1.224;2023-01-31T05:51:37;101027.56;;;5.88;85.23
70544;BME280;58097;48.364;-1.224;2023-01-31T05:54:02;101027.38;;;5.91;84.97
70544;BME280;58097;48.364;-1.224;2023-01-31T05:56:28;101025.41;;;5.93;84.78
70544;BME280;58097;48.364;-1.224;2023-01-31T05:58:53;101020.91;;;5.92;85.09
70544;BME280;58097;48.364;-1.224;2023-01-31T06:01:20;101025.31;;;5.95;85.04
70544;BME280;58097;48.364;-1.224;2023-01-31T06:03:46;101029.03;;;5.94;84.98
70544;BME280;58097;48.364;-1.224;2023-01-31T06:06:12;101029.91;;;5.94;85.22
70544;BME280;58097;48.364;-1.224;2023-01-31T06:08:38;101035.28;;;5.96;85.12
70544;BME280;58097;48.364;-1.224;2023-01-31T06:11:04;101037.06;;;5.97;85.03
70544;BME280;58097;48.364;-1.224;2023-01-31T06:13:31;101043.41;;;5.97;84.93
70544;BME280;58097;48.364;-1.224;2023-01-31T06:15:56;101046.16;;;5.97;84.47
70544;BME280;58097;48.364;-1.224;2023-01-31T06:18:22;101048.13;;;5.95;84.59
70544;BME280;58097;48.364;-1.224;2023-01-31T06:20:47;101047.34;;;5.93;84.63
70544;BME280;58097;48.364;-1.224;2023-01-31T06:23:12;101047.34;;;5.93;84.78
70544;BME280;58097;48.364;-1.224;2023-01-31T06:25:38;101050.22;;;5.92;84.67
70544;BME280;58097;48.364;-1.224;2023-01-31T06:28:03;101052.94;;;5.92;84.58
70544;BME280;58097;48.364;-1.224;2023-01-31T06:30:30;101051.19;;;5.90;84.81
70544;BME280;58097;48.364;-1.224;2023-01-31T06:32:58;101057.66;;;5.89;84.21
70544;BME280;58097;48.364;-1.224;2023-01-31T06:35:24;101057.66;;;5.89;84.61
70544;BME280;58097;48.364;-1.224;2023-01-31T06:37:49;101060.59;;;5.86;84.58
70544;BME280;58097;48.364;-1.224;2023-01-31T06:40:14;101059.50;;;5.89;84.55
70544;BME280;58097;48.364;-1.224;2023-01-31T06:42:40;101049.50;;;5.88;84.21
70544;BME280;58097;48.364;-1.224;2023-01-31T06:45:05;101062.44;;;5.86;84.65
70544;BME280;58097;48.364;-1.224;2023-01-31T06:47:31;101050.59;;;5.85;84.75
70544;BME280;58097;48.364;-1.224;2023-01-31T06:49:56;101050.50;;;5.87;84.77
70544;BME280;58097;48.364;-1.224;2023-01-31T06:52:22;101049.63;;;5.86;84.73
70544;BME280;58097;48.364;-1.224;2023-01-31T06:54:47;101049.50;;;5.88;84.78
70544;BME280;58097;48.364;-1.224;2023-01-31T06:57:12;101049.50;;;5.88;84.30
70544;BME280;58097;48.364;-1.224;2023-01-31T06:59:38;101057.06;;;5.84;84.19
70544;BME280;58097;48.364;-1.224;2023-01-31T07:02:03;101047.97;;;5.84;84.43
70544;BME280;58097;48.364;-1.224;2023-01-31T07:04:28;101048.06;;;5.82;84.42
70544;BME280;58097;48.364;-1.224;2023-01-31T07:06:54;101051.78;;;5.81;84.67
70544;BME280;58097;48.364;-1.224;2023-01-31T07:09:19;101053.66;;;5.81;84.57
70544;BME280;58097;48.364;-1.224;2023-01-31T07:11:45;101057.38;;;5.80;84.60
70544;BME280;58097;48.364;-1.224;2023-01-31T07:14:10;101060.03;;;5.81;84.83
70544;BME280;58097;48.364;-1.224;2023-01-31T07:16:35;101058.06;;;5.83;84.85
70544;BME280;58097;48.364;-1.224;2023-01-31T07:19:02;101070.69;;;5.86;84.70
70544;BME280;58097;48.364;-1.224;2023-01-31T07:21:27;101067.94;;;5.86;84.89
70544;BME280;58097;48.364;-1.224;2023-01-31T07:23:54;101074.19;;;5.88;85.06
70544;BME280;58097;48.364;-1.224;2023-01-31T07:26:19;101073.22;;;5.89;85.01
70544;BME280;58097;48.364;-1.224;2023-01-31T07:28:44;101076.75;;;5.91;84.84
70544;BME280;58097;48.364;-1.224;2023-01-31T07:31:12;101070.41;;;5.90;84.96
70544;BME280;58097;48.364;-1.224;2023-01-31T07:33:38;101070.41;;;5.90;85.06
70544;BME280;58097;48.364;-1.224;2023-01-31T07:36:05;101070.41;;;5.90;85.00
70544;BME280;58097;48.364;-1.224;2023-01-31T07:38:32;101078.63;;;5.90;84.91
70544;BME280;58097;48.364;-1.224;2023-01-31T07:40:58;101085.19;;;5.88;84.58
70544;BME280;58097;48.364;-1.224;2023-01-31T07:43:25;101086.06;;;5.88;85.02
70544;BME280;58097;48.364;-1.224;2023-01-31T07:45:51;101081.38;;;5.90;84.92
70544;BME280;58097;48.364;-1.224;2023-01-31T07:48:16;101077.66;;;5.92;84.79
70544;BME280;58097;48.364;-1.224;2023-01-31T07:50:50;101072.34;;;5.88;84.70
70544;BME280;58097;48.364;-1.224;2023-01-31T07:53:16;101067.72;;;5.89;84.64
70544;BME280;58097;48.364;-1.224;2023-01-31T07:55:41;101076.88;;;5.89;84.55
70544;BME280;58097;48.364;-1.224;2023-01-31T07:58:12;101075.00;;;5.90;84.82
70544;BME280;58097;48.364;-1.224;2023-01-31T08:00:37;101073.91;;;5.93;84.77
70544;BME280;58097;48.364;-1.224;2023-01-31T08:03:27;101072.25;;;5.90;84.81
70544;BME280;58097;48.364;-1.224;2023-01-31T08:06:03;101070.56;;;5.87;84.50
70544;BME280;58097;48.364;-1.224;2023-01-31T08:08:31;101066.84;;;5.88;84.74
70544;BME280;58097;48.364;-1.224;2023-01-31T08:10:56;101079.63;;;5.89;84.61
70544;BME280;58097;48.364;-1.224;2023-01-31T08:13:22;101069.59;;;5.88;84.60
70544;BME280;58097;48.364;-1.224;2023-01-31T08:15:50;101068.53;;;5.91;84.80
70544;BME280;58097;48.364;-1.224;2023-01-31T08:18:15;101071.28;;;5.91;84.65
70544;BME280;58097;48.364;-1.224;2023-01-31T08:20:41;101075.78;;;5.92;85.04
70544;BME280;58097;48.364;-1.224;2023-01-31T08:23:06;101071.06;;;5.94;84.81
70544;BME280;58097;48.364;-1.224;2023-01-31T08:25:31;101068.44;;;5.93;84.83
70544;BME280;58097;48.364;-1.224;2023-01-31T08:27:57;101069.09;;;5.96;84.95
70544;BME280;58097;48.364;-1.224;2023-01-31T08:30:22;101077.00;;;6.01;85.17
70544;BME280;58097;48.364;-1.224;2023-01-31T08:32:48;101080.53;;;6.03;85.16
70544;BME280;58097;48.364;-1.224;2023-01-31T08:35:13;101067.91;;;6.00;84.51
70544;BME280;58097;48.364;-1.224;2023-01-31T08:37:39;101076.13;;;6.00;84.75
70544;BME280;58097;48.364;-1.224;2023-01-31T08:40:05;101080.53;;;6.03;84.85
70544;BME280;58097;48.364;-1.224;2023-01-31T08:42:30;101083.88;;;6.08;84.84
70544;BME280;58097;48.364;-1.224;2023-01-31T08:44:56;101083.88;;;6.08;85.01
70544;BME280;58097;48.364;-1.224;2023-01-31T08:47:21;101087.28;;;6.11;85.21
70544;BME280;58097;48.364;-1.224;2023-01-31T08:49:46;101095.31;;;6.14;85.32
70544;BME280;58097;48.364;-1.224;2023-01-31T08:52:12;101095.88;;;6.19;84.83
70544;BME280;58097;48.364;-1.224;2023-01-31T08:54:37;101101.25;;;6.21;84.96
70544;BME280;58097;48.364;-1.224;2023-01-31T08:57:02;101104.66;;;6.25;85.17
70544;BME280;58097;48.364;-1.224;2023-01-31T08:59:28;101099.84;;;6.28;84.92
70544;BME280;58097;48.364;-1.224;2023-01-31T09:01:53;101108.28;;;6.25;85.00
70544;BME280;58097;48.364;-1.224;2023-01-31T09:04:19;101114.56;;;6.27;84.88
70544;BME280;58097;48.364;-1.224;2023-01-31T09:06:44;101114.88;;;6.22;84.45
70544;BME280;58097;48.364;-1.224;2023-01-31T09:09:09;101111.13;;;6.24;84.83
70544;BME280;58097;48.364;-1.224;2023-01-31T09:11:35;101108.28;;;6.25;84.77
70544;BME280;58097;48.364;-1.224;2023-01-31T09:14:00;101119.06;;;6.28;84.91
70544;BME280;58097;48.364;-1.224;2023-01-31T09:16:26;101121.69;;;6.30;84.76
70544;BME280;58097;48.364;-1.224;2023-01-31T09:18:51;101119.72;;;6.32;84.76
70544;BME280;58097;48.364;-1.224;2023-01-31T09:21:19;101116.88;;;6.33;84.69
70544;BME280;58097;48.364;-1.224;2023-01-31T09:23:46;101119.50;;;6.35;84.66
70544;BME280;58097;48.364;-1.224;2023-01-31T09:26:13;101118.63;;;6.34;84.24
70544;BME280;58097;48.364;-1.224;2023-01-31T09:28:39;101121.75;;;6.42;84.37
70544;BME280;58097;48.364;-1.224;2023-01-31T09:31:12;101121.13;;;6.51;84.74
70544;BME280;58097;48.364;-1.224;2023-01-31T09:33:37;101124.88;;;6.63;85.09
70544;BME280;58097;48.364;-1.224;2023-01-31T09:36:04;101125.69;;;6.78;85.28
70544;BME280;58097;48.364;-1.224;2023-01-31T09:38:29;101121.41;;;6.87;84.89
70544;BME280;58097;48.364;-1.224;2023-01-31T09:40:56;101119.84;;;6.82;83.63
70544;BME280;58097;48.364;-1.224;2023-01-31T09:43:27;101122.72;;;6.81;83.77
70544;BME280;58097;48.364;-1.224;2023-01-31T09:45:58;101134.38;;;6.84;84.30
70544;BME280;58097;48.364;-1.224;2023-01-31T09:48:28;101135.56;;;6.93;84.39
70544;BME280;58097;48.364;-1.224;2023-01-31T09:50:55;101144.03;;;6.90;83.89
70544;BME280;58097;48.364;-1.224;2023-01-31T09:53:26;101140.31;;;6.91;83.63
70544;BME280;58097;48.364;-1.224;2023-01-31T09:56:00;101140.13;;;6.94;83.82
70544;BME280;58097;48.364;-1.224;2023-01-31T09:58:50;101135.50;;;6.95;83.59
70544;BME280;58097;48.364;-1.224;2023-01-31T10:07:15;101148.69;;;7.28;84.80
70544;BME280;58097;48.364;-1.224;2023-01-31T10:09:50;101155.28;;;7.38;83.79
70544;BME280;58097;48.364;-1.224;2023-01-31T10:12:24;101155.28;;;7.38;83.36
70544;BME280;58097;48.364;-1.224;2023-01-31T10:14:59;101156.06;;;7.53;83.76
70544;BME280;58097;48.364;-1.224;2023-01-31T10:17:34;101160.97;;;7.73;84.11
70544;BME280;58097;48.364;-1.224;2023-01-31T10:22:53;101164.13;;;8.29;84.14
70544;BME280;58097;48.364;-1.224;2023-01-31T10:25:49;101164.69;;;8.58;83.64
70544;BME280;58097;48.364;-1.224;2023-01-31T10:28:24;101169.06;;;8.84;83.84
70544;BME280;58097;48.364;-1.224;2023-01-31T10:42:19;101166.19;;;9.32;80.05
70544;BME280;58097;48.364;-1.224;2023-01-31T10:44:53;101177.34;;;9.30;80.87
70544;BME280;58097;48.364;-1.224;2023-01-31T10:47:23;101177.47;;;9.29;81.50
70544;BME280;58097;48.364;-1.224;2023-01-31T10:49:49;101175.47;;;9.31;81.07
70544;BME280;58097;48.364;-1.224;2023-01-31T10:57:38;101173.16;;;9.14;81.84
70544;BME280;58097;48.364;-1.224;2023-01-31T11:00:04;101167.13;;;9.09;81.75
70544;BME280;58097;48.364;-1.224;2023-01-31T11:02:29;101169.75;;;8.99;79.68
70544;BME280;58097;48.364;-1.224;2023-01-31T11:04:57;101163.81;;;8.92;80.07
70544;BME280;58097;48.364;-1.224;2023-01-31T11:07:27;101165.31;;;8.85;80.71
70544;BME280;58097;48.364;-1.224;2023-01-31T11:09:53;101179.09;;;8.85;80.99
70544;BME280;58097;48.364;-1.224;2023-01-31T11:12:41;101182.34;;;8.90;80.87
70544;BME280;58097;48.364;-1.224;2023-01-31T11:15:16;101182.59;;;8.87;80.89
70544;BME280;58097;48.364;-1.224;2023-01-31T11:17:43;101184.34;;;8.88;81.28
70544;BME280;58097;48.364;-1.224;2023-01-31T11:20:31;101171.84;;;8.95;82.05
70544;BME280;58097;48.364;-1.224;2023-01-31T11:23:00;101174.13;;;9.02;82.38
70544;BME280;58097;48.364;-1.224;2023-01-31T11:25:27;101169.88;;;9.09;81.69
70544;BME280;58097;48.364;-1.224;2023-01-31T11:27:56;101175.41;;;9.09;81.05
70544;BME280;58097;48.364;-1.224;2023-01-31T11:30:28;101165.25;;;9.09;81.06
70544;BME280;58097;48.364;-1.224;2023-01-31T11:32:55;101171.78;;;9.08;80.05
70544;BME280;58097;48.364;-1.224;2023-01-31T11:35:29;101163.50;;;9.08;79.90
70544;BME280;58097;48.364;-1.224;2023-01-31T11:40:37;101145.34;;;9.17;80.81
70544;BME280;58097;48.364;-1.224;2023-01-31T11:43:06;101142.44;;;9.18;79.46
70544;BME280;58097;48.364;-1.224;2023-01-31T11:45:56;101140.06;;;9.14;78.58
70544;BME280;58097;48.364;-1.224;2023-01-31T11:48:24;101134.94;;;9.20;79.49
70544;BME280;58097;48.364;-1.224;2023-01-31T11:50:53;101126.94;;;9.28;79.40
70544;BME280;58097;48.364;-1.224;2023-01-31T11:53:23;101127.94;;;9.39;80.37
70544;BME280;58097;48.364;-1.224;2023-01-31T11:55:51;101129.44;;;9.43;79.15
70544;BME280;58097;48.364;-1.224;2023-01-31T11:58:21;101137.72;;;9.54;80.37
70544;BME280;58097;48.364;-1.224;2023-01-31T12:01:11;101137.63;;;9.55;79.39
70544;BME280;58097;48.364;-1.224;2023-01-31T12:03:38;101127.97;;;9.61;79.90
70544;BME280;58097;48.364;-1.224;2023-01-31T12:06:06;101119.41;;;9.64;80.96
70544;BME280;58097;48.364;-1.224;2023-01-31T12:08:37;101118.91;;;9.70;79.85
70544;BME280;58097;48.364;-1.224;2023-01-31T12:13:50;101114.91;;;9.63;78.08
70544;BME280;58097;48.364;-1.224;2023-01-31T12:16:20;101106.63;;;9.63;78.08
70544;BME280;58097;48.364;-1.224;2023-01-31T12:30:27;101098.31;;;9.74;77.19
70544;BME280;58097;48.364;-1.224;2023-01-31T12:41:35;101087.09;;;10.09;77.82
70544;BME280;58097;48.364;-1.224;2023-01-31T13:08:16;101061.16;;;10.44;77.69
70544;BME280;58097;48.364;-1.224;2023-01-31T13:10:58;101056.88;;;10.40;78.70
70544;BME280;58097;48.364;-1.224;2023-01-31T13:13:32;101058.28;;;10.34;77.74
70544;BME280;58097;48.364;-1.224;2023-01-31T13:16:04;101050.38;;;10.30;78.09
70544;BME280;58097;48.364;-1.224;2023-01-31T13:18:36;101049.16;;;10.22;77.41
70544;BME280;58097;48.364;-1.224;2023-01-31T13:21:05;101049.81;;;10.15;77.97
70544;BME280;58097;48.364;-1.224;2023-01-31T13:23:41;101051.81;;;10.13;78.69
70544;BME280;58097;48.364;-1.224;2023-01-31T13:26:11;101049.69;;;10.05;78.98
70544;BME280;58097;48.364;-1.224;2023-01-31T13:28:53;101044.28;;;10.04;78.60
70544;BME280;58097;48.364;-1.224;2023-01-31T13:31:24;101042.66;;;10.01;79.05
70544;BME280;58097;48.364;-1.224;2023-01-31T13:36:39;101031.16;;;9.96;78.54
70544;BME280;58097;48.364;-1.224;2023-01-31T13:39:58;101023.38;;;9.90;78.86
70544;BME280;58097;48.364;-1.224;2023-01-31T13:41:58;101028.03;;;9.89;79.37
70544;BME280;58097;48.364;-1.224;2023-01-31T13:44:23;101028.78;;;9.91;79.49
70544;BME280;58097;48.364;-1.224;2023-01-31T13:46:56;101028.03;;;9.89;78.76
70544;BME280;58097;48.364;-1.224;2023-01-31T13:49:27;101029.78;;;9.90;79.40
70544;BME280;58097;48.364;-1.224;2023-01-31T13:51:57;101034.16;;;9.93;78.95
70544;BME280;58097;48.364;-1.224;2023-01-31T13:54:36;101027.78;;;9.92;78.39
70544;BME280;58097;48.364;-1.224;2023-01-31T13:57:04;101016.13;;;9.89;78.69
70544;BME280;58097;48.364;-1.224;2023-01-31T13:59:33;101018.88;;;9.89;77.90
70544;BME280;58097;48.364;-1.224;2023-01-31T14:02:00;101008.84;;;9.88;77.99
70544;BME280;58097;48.364;-1.224;2023-01-31T14:04:35;101009.19;;;9.94;78.39
70544;BME280;58097;48.364;-1.224;2023-01-31T14:09:33;100992.94;;;10.12;78.94
70544;BME280;58097;48.364;-1.224;2023-01-31T14:17:02;100988.31;;;10.34;79.35
70544;BME280;58097;48.364;-1.224;2023-01-31T14:22:37;100997.75;;;10.31;79.40
70544;BME280;58097;48.364;-1.224;2023-01-31T14:25:12;100990.13;;;10.23;78.87
70544;BME280;58097;48.364;-1.224;2023-01-31T14:28:01;100983.75;;;10.23;79.48
70544;BME280;58097;48.364;-1.224;2023-01-31T14:30:36;100990.13;;;10.23;79.31
70544;BME280;58097;48.364;-1.224;2023-01-31T14:35:59;100989.25;;;10.12;78.82
70544;BME280;58097;48.364;-1.224;2023-01-31T14:41:13;100975.34;;;10.13;79.78
70544;BME280;58097;48.364;-1.224;2023-01-31T14:46:36;100978.41;;;9.99;78.81
70544;BME280;58097;48.364;-1.224;2023-01-31T14:55:27;100991.41;;;9.76;79.13
70544;BME280;58097;48.364;-1.224;2023-01-31T14:57:59;100991.81;;;9.72;79.36
70544;BME280;58097;48.364;-1.224;2023-01-31T15:00:32;100983.78;;;9.69;79.69
70544;BME280;58097;48.364;-1.224;2023-01-31T15:03:05;100996.09;;;9.65;79.62
70544;BME280;58097;48.364;-1.224;2023-01-31T15:13:46;101001.13;;;9.59;80.24
70544;BME280;58097;48.364;-1.224;2023-01-31T15:24:26;100998.84;;;9.53;80.89
70544;BME280;58097;48.364;-1.224;2023-01-31T15:26:54;101000.75;;;9.53;81.11
70544;BME280;58097;48.364;-1.224;2023-01-31T15:29:23;101006.38;;;9.51;81.04